sensor_id;sensor_type;location;lat;lon;timestamp;P1;durP1;ratioP1;P2;durP2;ratioP2
66189;SDS011;52992;52.084;5.412;2024-01-30T00:00:34;18.27;;;12.00;;
66189;SDS011;52992;52.084;5.412;2024-01-30T00:03:01;18.47;;;11.53;;
66189;SDS011;52992;52.084;5.412;2024-01-30T00:05:31;18.20;;;12.03;;
66189;SDS011;52992;52.084;5.412;2024-01-30T00:07:58;19.17;;;11.60;;
66189;SDS011;52992;52.084;5.412;2024-01-30T00:10:25;20.33;;;13.17;;
66189;SDS011;52992;52.084;5.412;2024-01-30T00:12:52;19.87;;;11.93;;
66189;SDS011;52992;52.084;5.412;2024-01-30T00:15:19;21.50;;;12.40;;
66189;SDS011;52992;52.084;5.412;2024-01-30T00:17:46;19.23;;;12.97;;
66189;SDS011;52992;52.084;5.412;2024-01-30T00:20:13;21.87;;;12.83;;
66189;SDS011;52992;52.084;5.412;2024-01-30T00:22:40;19.27;;;12.43;;
66189;SDS011;52992;52.084;5.412;2024-01-30T00:25:07;20.67;;;12.37;;
66189;SDS011;52992;52.084;5.412;2024-01-30T00:27:34;20.10;;;11.87;;
66189;SDS011;52992;52.084;5.412;2024-01-30T00:30:01;18.07;;;11.50;;
66189;SDS011;52992;52.084;5.412;2024-01-30T00:32:28;17.17;;;12.30;;
66189;SDS011;52992;52.084;5.412;2024-01-30T00:34:55;18.03;;;12.23;;
66189;SDS011;52992;52.084;5.412;2024-01-30T00:37:23;19.10;;;12.07;;
66189;SDS011;52992;52.084;5.412;2024-01-30T00:39:49;20.17;;;12.73;;
66189;SDS011;52992;52.084;5.412;2024-01-30T00:42:16;18.30;;;11.83;;
66189;SDS011;52992;52.084;5.412;2024-01-30T00:44:43;18.87;;;12.20;;
66189;SDS011;52992;52.084;5.412;2024-01-30T00:47:10;22.57;;;12.70;;
66189;SDS011;52992;52.084;5.412;2024-01-30T00:49:37;21.03;;;12.43;;
66189;SDS011;52992;52.084;5.412;2024-01-30T00:52:04;19.17;;;12.27;;
66189;SDS011;52992;52.084;5.412;2024-01-30T00:54:32;19.20;;;11.53;;
66189;SDS011;52992;52.084;5.412;2024-01-30T00:56:58;18.03;;;11.50;;
66189;SDS011;52992;52.084;5.412;2024-01-30T00:59:25;17.03;;;11.90;;
66189;SDS011;52992;52.084;5.412;2024-01-30T01:01:52;22.37;;;12.37;;
66189;SDS011;52992;52.084;5.412;2024-01-30T01:04:19;19.53;;;12.20;;
66189;SDS011;52992;52.084;5.412;2024-01-30T01:06:47;17.07;;;11.20;;
66189;SDS011;52992;52.084;5.412;2024-01-30T01:09:15;23.03;;;12.50;;
66189;SDS011;52992;52.084;5.412;2024-01-30T01:11:42;21.50;;;12.33;;
66189;SDS011;52992;52.084;5.412;2024-01-30T01:14:09;18.93;;;11.30;;
66189;SDS011;52992;52.084;5.412;2024-01-30T01:16:36;18.27;;;11.33;;
66189;SDS011;52992;52.084;5.412;2024-01-30T01:19:03;17.50;;;11.40;;
66189;SDS011;52992;52.084;5.412;2024-01-30T01:21:31;18.80;;;12.03;;
66189;SDS011;52992;52.084;5.412;2024-01-30T01:23:58;17.73;;;11.50;;
66189;SDS011;52992;52.084;5.412;2024-01-30T01:26:25;20.20;;;11.47;;
66189;SDS011;52992;52.084;5.412;2024-01-30T01:28:52;17.13;;;10.90;;
66189;SDS011;52992;52.084;5.412;2024-01-30T01:31:20;17.27;;;10.77;;
66189;SDS011;52992;52.084;5.412;2024-01-30T01:33:51;20.40;;;12.03;;
66189;SDS011;52992;52.084;5.412;2024-01-30T01:36:18;16.43;;;10.93;;
66189;SDS011;52992;52.084;5.412;2024-01-30T01:38:45;18.77;;;10.90;;
66189;SDS011;52992;52.084;5.412;2024-01-30T01:41:11;19.37;;;11.30;;
66189;SDS011;52992;52.084;5.412;2024-01-30T01:43:38;19.27;;;10.33;;
66189;SDS011;52992;52.084;5.412;2024-01-30T01:46:06;16.30;;;11.60;;
66189;SDS011;52992;52.084;5.412;2024-01-30T01:48:33;19.13;;;10.80;;
66189;SDS011;52992;52.084;5.412;2024-01-30T01:51:00;17.67;;;10.73;;
66189;SDS011;52992;52.084;5.412;2024-01-30T01:53:28;15.70;;;10.77;;
66189;SDS011;52992;52.084;5.412;2024-01-30T01:55:55;19.57;;;11.03;;
66189;SDS011;52992;52.084;5.412;2024-01-30T01:58:22;15.37;;;10.20;;
66189;SDS011;52992;52.084;5.412;2024-01-30T02:00:56;16.83;;;10.17;;
66189;SDS011;52992;52.084;5.412;2024-01-30T02:03:24;17.70;;;11.13;;
66189;SDS011;52992;52.084;5.412;2024-01-30T02:05:51;18.13;;;10.13;;
66189;SDS011;52992;52.084;5.412;2024-01-30T02:08:18;16.43;;;10.43;;
66189;SDS011;52992;52.084;5.412;2024-01-30T02:10:45;17.53;;;10.80;;
66189;SDS011;52992;52.084;5.412;2024-01-30T02:13:13;18.97;;;10.47;;
66189;SDS011;52992;52.084;5.412;2024-01-30T02:15:40;16.53;;;10.53;;
66189;SDS011;52992;52.084;5.412;2024-01-30T02:18:07;17.80;;;10.27;;
66189;SDS011;52992;52.084;5.412;2024-01-30T02:20:34;16.50;;;10.43;;
66189;SDS011;52992;52.084;5.412;2024-01-30T02:23:02;17.43;;;10.27;;
66189;SDS011;52992;52.084;5.412;2024-01-30T02:25:39;13.10;;;9.33;;
66189;SDS011;52992;52.084;5.412;2024-01-30T02:28:13;16.03;;;9.83;;
66189;SDS011;52992;52.084;5.412;2024-01-30T02:30:40;16.47;;;9.67;;
66189;SDS011;52992;52.084;5.412;2024-01-30T02:33:09;15.83;;;10.37;;
66189;SDS011;52992;52.084;5.412;2024-01-30T02:35:36;17.97;;;11.50;;
66189;SDS011;52992;52.084;5.412;2024-01-30T02:38:03;18.93;;;11.73;;
66189;SDS011;52992;52.084;5.412;2024-01-30T02:40:30;19.00;;;12.17;;
66189;SDS011;52992;52.084;5.412;2024-01-30T02:42:59;19.73;;;12.30;;
66189;SDS011;52992;52.084;5.412;2024-01-30T02:45:29;19.63;;;12.77;;
66189;SDS011;52992;52.084;5.412;2024-01-30T02:47:56;23.70;;;12.27;;
66189;SDS011;52992;52.084;5.412;2024-01-30T02:50:23;18.73;;;12.30;;
66189;SDS011;52992;52.084;5.412;2024-01-30T02:52:50;21.37;;;12.07;;
66189;SDS011;52992;52.084;5.412;2024-01-30T02:55:16;25.50;;;13.83;;
66189;SDS011;52992;52.084;5.412;2024-01-30T02:57:44;22.57;;;12.70;;
66189;SDS011;52992;52.084;5.412;2024-01-30T03:00:12;23.87;;;13.63;;
66189;SDS011;52992;52.084;5.412;2024-01-30T03:02:39;21.03;;;13.70;;
66189;SDS011;52992;52.084;5.412;2024-01-30T03:05:07;21.43;;;12.93;;
66189;SDS011;52992;52.084;5.412;2024-01-30T03:07:34;19.03;;;13.03;;
66189;SDS011;52992;52.084;5.412;2024-01-30T03:10:01;23.17;;;12.60;;
66189;SDS011;52992;52.084;5.412;2024-01-30T03:12:28;18.60;;;11.93;;
66189;SDS011;52992;52.084;5.412;2024-01-30T03:14:55;19.27;;;11.33;;
66189;SDS011;52992;52.084;5.412;2024-01-30T03:17:22;17.20;;;11.80;;
66189;SDS011;52992;52.084;5.412;2024-01-30T03:19:50;16.57;;;10.50;;
66189;SDS011;52992;52.084;5.412;2024-01-30T03:22:17;15.93;;;10.43;;
66189;SDS011;52992;52.084;5.412;2024-01-30T03:24:44;16.20;;;10.50;;
66189;SDS011;52992;52.084;5.412;2024-01-30T03:27:11;17.57;;;10.20;;
66189;SDS011;52992;52.084;5.412;2024-01-30T03:29:38;15.17;;;9.07;;
66189;SDS011;52992;52.084;5.412;2024-01-30T03:32:05;16.13;;;10.40;;
66189;SDS011;52992;52.084;5.412;2024-01-30T03:34:32;14.60;;;9.23;;
66189;SDS011;52992;52.084;5.412;2024-01-30T03:36:59;15.47;;;9.40;;
66189;SDS011;52992;52.084;5.412;2024-01-30T03:39:26;13.70;;;9.30;;
66189;SDS011;52992;52.084;5.412;2024-01-30T03:41:53;13.87;;;9.10;;
66189;SDS011;52992;52.084;5.412;2024-01-30T03:44:20;15.47;;;9.37;;
66189;SDS011;52992;52.084;5.412;2024-01-30T03:46:47;14.83;;;8.83;;
66189;SDS011;52992;52.084;5.412;2024-01-30T03:49:15;15.13;;;9.60;;
66189;SDS011;52992;52.084;5.412;2024-01-30T03:51:42;13.30;;;9.17;;
66189;SDS011;52992;52.084;5.412;2024-01-30T03:54:09;16.77;;;9.03;;
66189;SDS011;52992;52.084;5.412;2024-01-30T03:56:36;13.70;;;8.50;;
66189;SDS011;52992;52.084;5.412;2024-01-30T03:59:03;11.50;;;8.37;;
66189;SDS011;52992;52.084;5.412;2024-01-30T04:01:29;13.67;;;8.77;;
66189;SDS011;52992;52.084;5.412;2024-01-30T04:03:56;14.80;;;8.40;;
66189;SDS011;52992;52.084;5.412;2024-01-30T04:06:24;14.90;;;8.53;;
66189;SDS011;52992;52.084;5.412;2024-01-30T04:08:50;13.23;;;8.67;;
66189;SDS011;52992;52.084;5.412;2024-01-30T04:11:18;14.27;;;9.27;;
66189;SDS011;52992;52.084;5.412;2024-01-30T04:13:46;13.73;;;8.50;;
66189;SDS011;52992;52.084;5.412;2024-01-30T04:16:21;14.27;;;8.00;;
66189;SDS011;52992;52.084;5.412;2024-01-30T04:18:49;12.43;;;7.93;;
66189;SDS011;52992;52.084;5.412;2024-01-30T04:21:17;13.30;;;8.53;;
66189;SDS011;52992;52.084;5.412;2024-01-30T04:23:44;13.53;;;8.80;;
66189;SDS011;52992;52.084;5.412;2024-01-30T04:26:11;14.60;;;8.40;;
66189;SDS011;52992;52.084;5.412;2024-01-30T04:28:38;14.33;;;9.47;;
66189;SDS011;52992;52.084;5.412;2024-01-30T04:31:07;12.87;;;8.33;;
66189;SDS011;52992;52.084;5.412;2024-01-30T04:33:35;15.40;;;8.67;;
66189;SDS011;52992;52.084;5.412;2024-01-30T04:36:02;12.30;;;8.10;;
66189;SDS011;52992;52.084;5.412;2024-01-30T04:38:30;14.83;;;8.07;;
66189;SDS011;52992;52.084;5.412;2024-01-30T04:40:57;14.63;;;8.57;;
66189;SDS011;52992;52.084;5.412;2024-01-30T04:43:25;11.23;;;8.07;;
66189;SDS011;52992;52.084;5.412;2024-01-30T04:45:53;13.90;;;9.00;;
66189;SDS011;52992;52.084;5.412;2024-01-30T04:48:20;16.07;;;8.57;;
66189;SDS011;52992;52.084;5.412;2024-01-30T04:50:46;14.33;;;8.70;;
66189;SDS011;52992;52.084;5.412;2024-01-30T04:53:13;11.53;;;8.67;;
66189;SDS011;52992;52.084;5.412;2024-01-30T04:55:40;12.83;;;8.90;;
66189;SDS011;52992;52.084;5.412;2024-01-30T04:58:07;16.57;;;8.37;;
66189;SDS011;52992;52.084;5.412;2024-01-30T05:00:34;14.37;;;8.67;;
66189;SDS011;52992;52.084;5.412;2024-01-30T05:03:01;12.40;;;7.90;;
66189;SDS011;52992;52.084;5.412;2024-01-30T05:05:28;13.33;;;8.80;;
66189;SDS011;52992;52.084;5.412;2024-01-30T05:07:55;15.03;;;8.07;;
66189;SDS011;52992;52.084;5.412;2024-01-30T05:10:22;15.23;;;8.60;;
66189;SDS011;52992;52.084;5.412;2024-01-30T05:12:49;12.83;;;8.63;;
66189;SDS011;52992;52.084;5.412;2024-01-30T05:15:16;14.40;;;8.53;;
66189;SDS011;52992;52.084;5.412;2024-01-30T05:17:42;12.17;;;8.13;;
66189;SDS011;52992;52.084;5.412;2024-01-30T05:20:10;13.03;;;8.77;;
66189;SDS011;52992;52.084;5.412;2024-01-30T05:22:38;10.77;;;7.97;;
66189;SDS011;52992;52.084;5.412;2024-01-30T05:25:12;17.73;;;9.43;;
66189;SDS011;52992;52.084;5.412;2024-01-30T05:27:39;12.50;;;8.80;;
66189;SDS011;52992;52.084;5.412;2024-01-30T05:30:06;14.30;;;8.63;;
66189;SDS011;52992;52.084;5.412;2024-01-30T05:32:34;17.83;;;9.37;;
66189;SDS011;52992;52.084;5.412;2024-01-30T05:35:01;14.07;;;9.03;;
66189;SDS011;52992;52.084;5.412;2024-01-30T05:37:28;14.20;;;8.30;;
66189;SDS011;52992;52.084;5.412;2024-01-30T05:39:56;11.37;;;8.07;;
66189;SDS011;52992;52.084;5.412;2024-01-30T05:42:25;13.17;;;8.67;;
66189;SDS011;52992;52.084;5.412;2024-01-30T05:44:52;12.40;;;7.83;;
66189;SDS011;52992;52.084;5.412;2024-01-30T05:47:19;15.10;;;8.40;;
66189;SDS011;52992;52.084;5.412;2024-01-30T05:49:45;13.17;;;8.40;;
66189;SDS011;52992;52.084;5.412;2024-01-30T05:52:12;14.03;;;8.70;;
66189;SDS011;52992;52.084;5.412;2024-01-30T05:54:39;17.77;;;9.73;;
66189;SDS011;52992;52.084;5.412;2024-01-30T05:57:06;14.27;;;8.30;;
66189;SDS011;52992;52.084;5.412;2024-01-30T05:59:33;16.00;;;9.50;;
66189;SDS011;52992;52.084;5.412;2024-01-30T06:02:07;12.37;;;8.70;;
66189;SDS011;52992;52.084;5.412;2024-01-30T06:04:34;15.07;;;8.60;;
66189;SDS011;52992;52.084;5.412;2024-01-30T06:07:01;10.90;;;7.80;;
66189;SDS011;52992;52.084;5.412;2024-01-30T06:09:28;14.87;;;8.80;;
66189;SDS011;52992;52.084;5.412;2024-01-30T06:11:55;12.83;;;8.40;;
66189;SDS011;52992;52.084;5.412;2024-01-30T06:14:23;15.13;;;8.37;;
66189;SDS011;52992;52.084;5.412;2024-01-30T06:16:50;11.67;;;7.77;;
66189;SDS011;52992;52.084;5.412;2024-01-30T06:19:17;15.47;;;8.90;;
66189;SDS011;52992;52.084;5.412;2024-01-30T06:21:44;12.13;;;8.30;;
66189;SDS011;52992;52.084;5.412;2024-01-30T06:24:11;12.27;;;8.60;;
66189;SDS011;52992;52.084;5.412;2024-01-30T06:26:38;13.20;;;8.20;;
66189;SDS011;52992;52.084;5.412;2024-01-30T06:29:05;13.77;;;8.53;;
66189;SDS011;52992;52.084;5.412;2024-01-30T06:31:39;12.27;;;7.80;;
66189;SDS011;52992;52.084;5.412;2024-01-30T06:34:09;17.27;;;8.43;;
66189;SDS011;52992;52.084;5.412;2024-01-30T06:36:36;13.23;;;8.83;;
66189;SDS011;52992;52.084;5.412;2024-01-30T06:39:03;17.27;;;8.63;;
66189;SDS011;52992;52.084;5.412;2024-01-30T06:41:30;13.30;;;8.53;;
66189;SDS011;52992;52.084;5.412;2024-01-30T06:43:57;14.07;;;8.20;;
66189;SDS011;52992;52.084;5.412;2024-01-30T06:46:24;13.00;;;8.10;;
66189;SDS011;52992;52.084;5.412;2024-01-30T06:48:51;16.00;;;8.87;;
66189;SDS011;52992;52.084;5.412;2024-01-30T06:51:18;14.27;;;8.37;;
66189;SDS011;52992;52.084;5.412;2024-01-30T06:53:45;14.57;;;9.23;;
66189;SDS011;52992;52.084;5.412;2024-01-30T06:56:11;11.73;;;8.00;;
66189;SDS011;52992;52.084;5.412;2024-01-30T06:58:38;11.40;;;8.17;;
66189;SDS011;52992;52.084;5.412;2024-01-30T07:01:06;12.67;;;8.33;;
66189;SDS011;52992;52.084;5.412;2024-01-30T07:03:33;13.13;;;9.07;;
66189;SDS011;52992;52.084;5.412;2024-01-30T07:06:00;13.13;;;8.20;;
66189;SDS011;52992;52.084;5.412;2024-01-30T07:08:27;14.27;;;8.67;;
66189;SDS011;52992;52.084;5.412;2024-01-30T07:10:54;12.57;;;8.20;;
66189;SDS011;52992;52.084;5.412;2024-01-30T07:13:26;15.20;;;7.83;;
66189;SDS011;52992;52.084;5.412;2024-01-30T07:15:54;15.93;;;8.47;;
66189;SDS011;52992;52.084;5.412;2024-01-30T07:18:21;15.67;;;8.50;;
66189;SDS011;52992;52.084;5.412;2024-01-30T07:20:49;17.30;;;7.90;;
66189;SDS011;52992;52.084;5.412;2024-01-30T07:23:16;14.40;;;7.67;;
66189;SDS011;52992;52.084;5.412;2024-01-30T07:25:44;13.87;;;8.20;;
66189;SDS011;52992;52.084;5.412;2024-01-30T07:28:15;13.63;;;8.50;;
66189;SDS011;52992;52.084;5.412;2024-01-30T07:30:45;16.00;;;8.80;;
66189;SDS011;52992;52.084;5.412;2024-01-30T07:33:12;13.43;;;8.37;;
66189;SDS011;52992;52.084;5.412;2024-01-30T07:35:39;15.23;;;8.63;;
66189;SDS011;52992;52.084;5.412;2024-01-30T07:38:07;15.17;;;8.70;;
66189;SDS011;52992;52.084;5.412;2024-01-30T07:40:33;14.30;;;7.97;;
66189;SDS011;52992;52.084;5.412;2024-01-30T07:43:01;14.37;;;8.57;;
66189;SDS011;52992;52.084;5.412;2024-01-30T07:45:29;12.13;;;7.23;;
66189;SDS011;52992;52.084;5.412;2024-01-30T07:47:59;13.07;;;8.57;;
66189;SDS011;52992;52.084;5.412;2024-01-30T07:50:26;14.57;;;8.30;;
66189;SDS011;52992;52.084;5.412;2024-01-30T07:52:55;15.57;;;9.67;;
66189;SDS011;52992;52.084;5.412;2024-01-30T07:55:23;14.07;;;8.70;;
66189;SDS011;52992;52.084;5.412;2024-01-30T07:57:54;14.00;;;8.50;;
66189;SDS011;52992;52.084;5.412;2024-01-30T08:00:22;13.83;;;7.67;;
66189;SDS011;52992;52.084;5.412;2024-01-30T08:02:49;13.97;;;8.67;;
66189;SDS011;52992;52.084;5.412;2024-01-30T08:05:17;14.10;;;8.23;;
66189;SDS011;52992;52.084;5.412;2024-01-30T08:07:44;13.43;;;8.33;;
66189;SDS011;52992;52.084;5.412;2024-01-30T08:10:12;14.60;;;8.97;;
66189;SDS011;52992;52.084;5.412;2024-01-30T08:12:40;16.43;;;8.63;;
66189;SDS011;52992;52.084;5.412;2024-01-30T08:15:07;15.00;;;8.47;;
66189;SDS011;52992;52.084;5.412;2024-01-30T08:17:34;15.27;;;8.53;;
66189;SDS011;52992;52.084;5.412;2024-01-30T08:20:01;15.63;;;8.10;;
66189;SDS011;52992;52.084;5.412;2024-01-30T08:22:31;12.90;;;8.10;;
66189;SDS011;52992;52.084;5.412;2024-01-30T08:24:58;14.73;;;8.77;;
66189;SDS011;52992;52.084;5.412;2024-01-30T08:27:24;11.93;;;8.57;;
66189;SDS011;52992;52.084;5.412;2024-01-30T08:29:51;13.60;;;8.33;;
66189;SDS011;52992;52.084;5.412;2024-01-30T08:32:19;15.43;;;8.23;;
66189;SDS011;52992;52.084;5.412;2024-01-30T08:34:46;15.00;;;8.93;;
66189;SDS011;52992;52.084;5.412;2024-01-30T08:37:13;18.03;;;9.27;;
66189;SDS011;52992;52.084;5.412;2024-01-30T08:39:43;15.63;;;8.43;;
66189;SDS011;52992;52.084;5.412;2024-01-30T08:42:10;17.33;;;9.33;;
66189;SDS011;52992;52.084;5.412;2024-01-30T08:44:38;19.80;;;9.93;;
66189;SDS011;52992;52.084;5.412;2024-01-30T08:47:05;21.50;;;9.50;;
66189;SDS011;52992;52.084;5.412;2024-01-30T08:49:32;17.10;;;9.00;;
66189;SDS011;52992;52.084;5.412;2024-01-30T08:51:59;16.63;;;9.00;;
66189;SDS011;52992;52.084;5.412;2024-01-30T08:54:26;14.97;;;8.70;;
66189;SDS011;52992;52.084;5.412;2024-01-30T08:56:53;18.20;;;8.83;;
66189;SDS011;52992;52.084;5.412;2024-01-30T08:59:22;20.40;;;9.20;;
66189;SDS011;52992;52.084;5.412;2024-01-30T09:01:49;13.17;;;8.20;;
66189;SDS011;52992;52.084;5.412;2024-01-30T09:04:32;17.23;;;8.80;;
66189;SDS011;52992;52.084;5.412;2024-01-30T09:06:59;18.23;;;9.20;;
66189;SDS011;52992;52.084;5.412;2024-01-30T09:09:27;16.03;;;8.53;;
66189;SDS011;52992;52.084;5.412;2024-01-30T09:11:54;20.80;;;9.10;;
66189;SDS011;52992;52.084;5.412;2024-01-30T09:14:21;14.83;;;8.40;;
66189;SDS011;52992;52.084;5.412;2024-01-30T09:16:48;14.07;;;8.60;;
66189;SDS011;52992;52.084;5.412;2024-01-30T09:19:15;15.57;;;9.00;;
66189;SDS011;52992;52.084;5.412;2024-01-30T09:21:42;13.40;;;8.33;;
66189;SDS011;52992;52.084;5.412;2024-01-30T09:24:09;18.17;;;8.60;;
66189;SDS011;52992;52.084;5.412;2024-01-30T09:26:36;15.93;;;8.90;;
66189;SDS011;52992;52.084;5.412;2024-01-30T09:29:03;15.37;;;8.13;;
66189;SDS011;52992;52.084;5.412;2024-01-30T09:31:30;14.20;;;8.87;;
66189;SDS011;52992;52.084;5.412;2024-01-30T09:33:57;18.80;;;9.10;;
66189;SDS011;52992;52.084;5.412;2024-01-30T09:36:25;17.20;;;8.90;;
66189;SDS011;52992;52.084;5.412;2024-01-30T09:38:52;15.20;;;8.13;;
66189;SDS011;52992;52.084;5.412;2024-01-30T09:41:19;12.17;;;7.87;;
66189;SDS011;52992;52.084;5.412;2024-01-30T09:43:47;15.20;;;8.77;;
66189;SDS011;52992;52.084;5.412;2024-01-30T09:46:16;11.37;;;8.10;;
66189;SDS011;52992;52.084;5.412;2024-01-30T09:48:47;16.83;;;8.80;;
66189;SDS011;52992;52.084;5.412;2024-01-30T09:51:15;13.13;;;8.40;;
66189;SDS011;52992;52.084;5.412;2024-01-30T09:53:44;17.13;;;8.77;;
66189;SDS011;52992;52.084;5.412;2024-01-30T09:56:12;16.60;;;8.70;;
66189;SDS011;52992;52.084;5.412;2024-01-30T09:58:39;15.73;;;8.87;;
66189;SDS011;52992;52.084;5.412;2024-01-30T10:01:06;15.63;;;8.63;;
66189;SDS011;52992;52.084;5.412;2024-01-30T10:03:33;16.10;;;9.10;;
66189;SDS011;52992;52.084;5.412;2024-01-30T10:06:00;14.20;;;8.80;;
66189;SDS011;52992;52.084;5.412;2024-01-30T10:08:28;16.67;;;8.90;;
66189;SDS011;52992;52.084;5.412;2024-01-30T10:10:56;13.00;;;8.57;;
66189;SDS011;52992;52.084;5.412;2024-01-30T10:13:25;20.23;;;8.57;;
66189;SDS011;52992;52.084;5.412;2024-01-30T10:15:53;14.13;;;8.10;;
66189;SDS011;52992;52.084;5.412;2024-01-30T10:18:24;17.80;;;9.07;;
66189;SDS011;52992;52.084;5.412;2024-01-30T10:20:51;12.00;;;7.90;;
66189;SDS011;52992;52.084;5.412;2024-01-30T10:23:18;12.43;;;8.30;;
66189;SDS011;52992;52.084;5.412;2024-01-30T10:25:46;13.43;;;8.00;;
66189;SDS011;52992;52.084;5.412;2024-01-30T10:28:13;13.10;;;7.60;;
66189;SDS011;52992;52.084;5.412;2024-01-30T10:30:40;15.00;;;7.93;;
66189;SDS011;52992;52.084;5.412;2024-01-30T10:33:07;13.80;;;8.53;;
66189;SDS011;52992;52.084;5.412;2024-01-30T10:35:35;12.00;;;8.30;;
66189;SDS011;52992;52.084;5.412;2024-01-30T10:38:02;16.20;;;8.60;;
66189;SDS011;52992;52.084;5.412;2024-01-30T10:40:32;13.90;;;8.33;;
66189;SDS011;52992;52.084;5.412;2024-01-30T10:43:01;12.27;;;7.97;;
66189;SDS011;52992;52.084;5.412;2024-01-30T10:45:31;15.97;;;7.90;;
66189;SDS011;52992;52.084;5.412;2024-01-30T10:47:59;11.67;;;7.67;;
66189;SDS011;52992;52.084;5.412;2024-01-30T10:50:27;15.00;;;7.83;;
66189;SDS011;52992;52.084;5.412;2024-01-30T10:52:57;14.83;;;8.37;;
66189;SDS011;52992;52.084;5.412;2024-01-30T10:55:25;14.43;;;7.93;;
66189;SDS011;52992;52.084;5.412;2024-01-30T10:57:55;14.53;;;7.77;;
66189;SDS011;52992;52.084;5.412;2024-01-30T11:00:22;14.43;;;8.07;;
66189;SDS011;52992;52.084;5.412;2024-01-30T11:02:50;12.93;;;8.00;;
66189;SDS011;52992;52.084;5.412;2024-01-30T11:05:24;12.77;;;7.53;;
66189;SDS011;52992;52.084;5.412;2024-01-30T11:07:59;12.37;;;7.73;;
66189;SDS011;52992;52.084;5.412;2024-01-30T11:10:47;15.33;;;7.87;;
66189;SDS011;52992;52.084;5.412;2024-01-30T11:13:15;11.77;;;7.77;;
66189;SDS011;52992;52.084;5.412;2024-01-30T11:15:42;12.57;;;7.27;;
66189;SDS011;52992;52.084;5.412;2024-01-30T11:18:09;10.00;;;7.57;;
66189;SDS011;52992;52.084;5.412;2024-01-30T11:20:36;13.40;;;7.87;;
66189;SDS011;52992;52.084;5.412;2024-01-30T11:23:03;11.53;;;6.87;;
66189;SDS011;52992;52.084;5.412;2024-01-30T11:25:32;13.93;;;7.23;;
66189;SDS011;52992;52.084;5.412;2024-01-30T11:28:00;10.90;;;5.83;;
66189;SDS011;52992;52.084;5.412;2024-01-30T11:30:28;11.23;;;6.40;;
66189;SDS011;52992;52.084;5.412;2024-01-30T11:32:58;13.17;;;5.47;;
66189;SDS011;52992;52.084;5.412;2024-01-30T11:35:37;14.20;;;6.23;;
66189;SDS011;52992;52.084;5.412;2024-01-30T11:38:07;13.83;;;6.20;;
66189;SDS011;52992;52.084;5.412;2024-01-30T11:40:36;9.77;;;6.10;;
66189;SDS011;52992;52.084;5.412;2024-01-30T11:43:05;8.30;;;5.03;;
66189;SDS011;52992;52.084;5.412;2024-01-30T11:45:34;5.87;;;4.37;;
66189;SDS011;52992;52.084;5.412;2024-01-30T11:48:02;10.37;;;4.23;;
66189;SDS011;52992;52.084;5.412;2024-01-30T11:50:31;6.70;;;4.20;;
66189;SDS011;52992;52.084;5.412;2024-01-30T11:53:01;6.13;;;3.37;;
66189;SDS011;52992;52.084;5.412;2024-01-30T11:55:29;6.73;;;3.77;;
66189;SDS011;52992;52.084;5.412;2024-01-30T11:58:00;5.60;;;3.10;;
66189;SDS011;52992;52.084;5.412;2024-01-30T12:00:27;6.97;;;3.47;;
66189;SDS011;52992;52.084;5.412;2024-01-30T12:02:57;5.70;;;3.17;;
66189;SDS011;52992;52.084;5.412;2024-01-30T12:05:27;9.37;;;3.20;;
66189;SDS011;52992;52.084;5.412;2024-01-30T12:07:54;8.33;;;3.50;;
66189;SDS011;52992;52.084;5.412;2024-01-30T12:10:25;5.87;;;2.50;;
66189;SDS011;52992;52.084;5.412;2024-01-30T12:12:53;4.83;;;2.20;;
66189;SDS011;52992;52.084;5.412;2024-01-30T12:15:21;3.73;;;1.83;;
66189;SDS011;52992;52.084;5.412;2024-01-30T12:17:49;3.67;;;2.23;;
66189;SDS011;52992;52.084;5.412;2024-01-30T12:20:19;7.50;;;2.90;;
66189;SDS011;52992;52.084;5.412;2024-01-30T12:22:49;5.20;;;2.33;;
66189;SDS011;52992;52.084;5.412;2024-01-30T12:25:17;4.03;;;3.10;;
66189;SDS011;52992;52.084;5.412;2024-01-30T12:27:47;5.00;;;3.07;;
66189;SDS011;52992;52.084;5.412;2024-01-30T12:30:19;7.90;;;4.03;;
66189;SDS011;52992;52.084;5.412;2024-01-30T12:32:49;6.43;;;3.80;;
66189;SDS011;52992;52.084;5.412;2024-01-30T12:35:18;7.13;;;3.53;;
66189;SDS011;52992;52.084;5.412;2024-01-30T12:37:48;6.80;;;3.13;;
66189;SDS011;52992;52.084;5.412;2024-01-30T12:40:16;6.47;;;3.93;;
66189;SDS011;52992;52.084;5.412;2024-01-30T12:42:43;8.33;;;3.50;;
66189;SDS011;52992;52.084;5.412;2024-01-30T12:45:16;9.13;;;2.97;;
66189;SDS011;52992;52.084;5.412;2024-01-30T12:47:46;7.57;;;3.37;;
66189;SDS011;52992;52.084;5.412;2024-01-30T12:50:13;7.10;;;2.80;;
66189;SDS011;52992;52.084;5.412;2024-01-30T12:52:42;4.30;;;2.90;;
66189;SDS011;52992;52.084;5.412;2024-01-30T12:55:13;8.43;;;3.40;;
66189;SDS011;52992;52.084;5.412;2024-01-30T12:57:40;5.30;;;2.60;;
66189;SDS011;52992;52.084;5.412;2024-01-30T13:00:08;8.07;;;3.20;;
66189;SDS011;52992;52.084;5.412;2024-01-30T13:02:35;5.00;;;3.30;;
66189;SDS011;52992;52.084;5.412;2024-01-30T13:05:03;9.00;;;3.70;;
66189;SDS011;52992;52.084;5.412;2024-01-30T13:07:31;5.03;;;2.80;;
66189;SDS011;52992;52.084;5.412;2024-01-30T13:09:58;5.83;;;3.10;;
66189;SDS011;52992;52.084;5.412;2024-01-30T13:12:30;6.27;;;2.80;;
66189;SDS011;52992;52.084;5.412;2024-01-30T13:14:59;7.20;;;2.60;;
66189;SDS011;52992;52.084;5.412;2024-01-30T13:17:31;5.30;;;2.20;;
66189;SDS011;52992;52.084;5.412;2024-01-30T13:19:58;3.13;;;2.00;;
66189;SDS011;52992;52.084;5.412;2024-01-30T13:22:36;3.77;;;2.50;;
66189;SDS011;52992;52.084;5.412;2024-01-30T13:25:05;5.03;;;2.27;;
66189;SDS011;52992;52.084;5.412;2024-01-30T13:27:33;5.80;;;2.43;;
66189;SDS011;52992;52.084;5.412;2024-01-30T13:30:00;6.40;;;2.60;;
66189;SDS011;52992;52.084;5.412;2024-01-30T13:32:27;6.87;;;2.60;;
66189;SDS011;52992;52.084;5.412;2024-01-30T13:34:54;5.33;;;2.90;;
66189;SDS011;52992;52.084;5.412;2024-01-30T13:37:22;4.80;;;2.90;;
66189;SDS011;52992;52.084;5.412;2024-01-30T13:39:49;5.17;;;2.73;;
66189;SDS011;52992;52.084;5.412;2024-01-30T13:42:16;4.53;;;2.53;;
66189;SDS011;52992;52.084;5.412;2024-01-30T13:44:43;4.03;;;1.87;;
66189;SDS011;52992;52.084;5.412;2024-01-30T13:47:10;3.07;;;1.73;;
66189;SDS011;52992;52.084;5.412;2024-01-30T13:49:37;4.37;;;2.50;;
66189;SDS011;52992;52.084;5.412;2024-01-30T13:52:04;11.00;;;2.60;;
66189;SDS011;52992;52.084;5.412;2024-01-30T13:54:32;2.53;;;1.80;;
66189;SDS011;52992;52.084;5.412;2024-01-30T13:56:59;3.40;;;1.90;;
66189;SDS011;52992;52.084;5.412;2024-01-30T13:59:26;2.90;;;1.53;;
66189;SDS011;52992;52.084;5.412;2024-01-30T14:01:53;2.33;;;1.40;;
66189;SDS011;52992;52.084;5.412;2024-01-30T14:04:20;2.00;;;1.30;;
66189;SDS011;52992;52.084;5.412;2024-01-30T14:06:48;4.10;;;1.50;;
66189;SDS011;52992;52.084;5.412;2024-01-30T14:09:26;4.20;;;1.07;;
66189;SDS011;52992;52.084;5.412;2024-01-30T14:11:53;1.40;;;1.03;;
66189;SDS011;52992;52.084;5.412;2024-01-30T14:14:20;2.73;;;1.40;;
66189;SDS011;52992;52.084;5.412;2024-01-30T14:16:46;3.07;;;1.20;;
66189;SDS011;52992;52.084;5.412;2024-01-30T14:19:13;3.47;;;1.57;;
66189;SDS011;52992;52.084;5.412;2024-01-30T14:21:40;3.93;;;1.70;;
66189;SDS011;52992;52.084;5.412;2024-01-30T14:24:09;3.50;;;1.40;;
66189;SDS011;52992;52.084;5.412;2024-01-30T14:26:36;4.47;;;1.90;;
66189;SDS011;52992;52.084;5.412;2024-01-30T14:29:04;3.40;;;1.93;;
66189;SDS011;52992;52.084;5.412;2024-01-30T14:31:31;4.37;;;2.27;;
66189;SDS011;52992;52.084;5.412;2024-01-30T14:33:57;3.43;;;1.67;;
66189;SDS011;52992;52.084;5.412;2024-01-30T14:36:25;3.23;;;1.70;;